Time;durP1;ratioP1;P1;durP2;ratioP2;P2;SDS_P1;SDS_P2;PMS_P1;PMS_P2;Temp;Humidity;BMP_temperature;BMP_pressure;BME280_temperature;BME280_humidity;BME280_pressure;Samples;Min_cycle;Max_cycle;Signal;HPM_P1;HPM_P2
2023/09/21 00:00:28;;;;;;;3.38;2.05;;;20.20;96.50;;;;;;5022926;28;20056;-83
2023/09/21 00:02:55;;;;;;;1.92;1.55;;;20.20;96.50;;;;;;5039711;28;20029;-83
2023/09/21 00:05:23;;;;;;;3.83;2.00;;;20.10;96.40;;;;;;5031332;28;20028;-84
2023/09/21 00:07:49;;;;;;;5.03;1.52;;;20.10;96.40;;;;;;5063049;28;20020;-83
2023/09/21 00:10:15;;;;;;;3.10;1.70;;;20.10;96.40;;;;;;5080038;28;20021;-82
2023/09/21 00:12:42;;;;;;;3.67;1.60;;;20.10;96.40;;;;;;5056275;28;20031;-82
2023/09/21 00:15:09;;;;;;;2.22;1.55;;;20.10;96.40;;;;;;5069017;28;20104;-83
2023/09/21 00:17:36;;;;;;;2.08;1.48;;;20.00;96.40;;;;;;5024202;28;20020;-83
2023/09/21 00:20:10;;;;;;;2.22;1.33;;;20.00;96.40;;;;;;5038345;28;20074;-83
2023/09/21 00:22:37;;;;;;;3.42;1.70;;;20.00;96.40;;;;;;5023910;28;20017;-82
2023/09/21 00:25:14;;;;;;;3.53;1.60;;;20.00;96.40;;;;;;5037555;28;20074;-84
2023/09/21 00:27:40;;;;;;;2.17;1.67;;;20.00;96.40;;;;;;5023121;28;20461;-83
2023/09/21 00:30:06;;;;;;;3.25;1.50;;;20.00;96.50;;;;;;5021147;28;20028;-83
2023/09/21 00:32:39;;;;;;;2.97;1.60;;;20.00;96.50;;;;;;5038280;28;20029;-83
2023/09/21 00:35:09;;;;;;;2.00;1.80;;;20.00;96.40;;;;;;5037123;28;20442;-83
2023/09/21 00:37:40;;;;;;;2.92;1.65;;;19.90;96.40;;;;;;5021771;28;20025;-83
2023/09/21 00:40:18;;;;;;;3.90;1.73;;;19.90;96.40;;;;;;5021188;28;20078;-83
2023/09/21 00:42:47;;;;;;;3.05;1.60;;;19.90;96.40;;;;;;5036741;28;20020;-83
2023/09/21 00:45:14;;;;;;;3.53;1.80;;;19.90;96.40;;;;;;5024603;28;20062;-83
2023/09/21 00:47:46;;;;;;;1.98;1.52;;;19.90;96.40;;;;;;5037330;28;20021;-83
2023/09/21 00:50:13;;;;;;;3.75;1.60;;;19.90;96.40;;;;;;5055162;28;20037;-83
2023/09/21 00:52:43;;;;;;;1.90;1.50;;;19.90;96.40;;;;;;5017602;28;20022;-83
2023/09/21 00:55:13;;;;;;;2.35;1.55;;;19.90;96.40;;;;;;5035076;28;20503;-83
2023/09/21 00:57:41;;;;;;;2.47;1.58;;;19.80;96.40;;;;;;5019289;28;20020;-83
2023/09/21 01:00:13;;;;;;;1.35;1.25;;;19.90;96.40;;;;;;5037004;28;20369;-82
2023/09/21 01:02:42;;;;;;;2.03;1.42;;;19.90;96.40;;;;;;5038118;28;20432;-82
2023/09/21 01:05:08;;;;;;;3.17;1.60;;;19.90;96.40;;;;;;5037046;28;20021;-83
2023/09/21 01:07:36;;;;;;;2.47;1.40;;;19.90;96.30;;;;;;5037318;28;20052;-83
2023/09/21 01:10:07;;;;;;;3.92;1.98;;;19.80;96.30;;;;;;5055238;28;20017;-83
2023/09/21 01:12:34;;;;;;;;;;;19.80;96.30;;;;;;5037761;28;20021;-83
2023/09/21 01:15:11;;;;;;;2.47;1.60;;;19.80;96.30;;;;;;5020430;28;20344;-83
2023/09/21 01:17:41;;;;;;;2.90;1.60;;;19.80;96.30;;;;;;5055205;28;20025;-84
2023/09/21 01:20:23;;;;;;;3.45;1.90;;;19.80;96.30;;;;;;5037311;28;20044;-84
2023/09/21 01:23:14;;;;;;;1.98;1.52;;;19.80;96.30;;;;;;5054579;28;20100;-84
2023/09/21 01:25:42;;;;;;;4.10;1.48;;;19.80;96.30;;;;;;5038286;28;20547;-84
2023/09/21 01:28:18;;;;;;;1.80;1.27;;;19.70;96.20;;;;;;5036233;28;20101;-83
2023/09/21 01:30:44;;;;;;;3.70;1.55;;;19.70;96.20;;;;;;5054383;28;20025;-84
2023/09/21 01:33:15;;;;;;;2.80;1.70;;;19.80;96.20;;;;;;5003933;28;20108;-83
2023/09/21 01:35:43;;;;;;;1.38;1.15;;;19.70;96.20;;;;;;5037402;28;20043;-84
2023/09/21 01:38:09;;;;;;;1.83;1.52;;;19.70;96.20;;;;;;5044093;28;20018;-84
2023/09/21 01:40:40;;;;;;;4.25;1.60;;;19.70;96.30;;;;;;5035126;28;20101;-84
2023/09/21 01:43:07;;;;;;;2.35;1.45;;;19.70;96.20;;;;;;5016969;28;20017;-83
2023/09/21 01:45:34;;;;;;;2.10;1.58;;;19.70;96.20;;;;;;5016592;28;20400;-84
2023/09/21 01:48:00;;;;;;;2.15;1.65;;;19.70;96.20;;;;;;5032056;28;20036;-84
2023/09/21 01:50:29;;;;;;;1.90;1.45;;;19.70;96.20;;;;;;5036854;28;20020;-84
2023/09/21 01:52:56;;;;;;;2.45;1.25;;;19.70;96.20;;;;;;5020258;28;20116;-83
2023/09/21 01:55:22;;;;;;;1.98;1.63;;;19.70;96.20;;;;;;5036637;28;20112;-84
2023/09/21 01:57:47;;;;;;;1.92;1.27;;;19.70;96.20;;;;;;5029035;28;20021;-83
2023/09/21 02:00:25;;;;;;;2.30;1.52;;;19.70;96.20;;;;;;5005078;28;20012;-84
2023/09/21 02:02:55;;;;;;;2.70;1.50;;;19.70;96.20;;;;;;5026261;28;20037;-86
2023/09/21 02:05:21;;;;;;;3.22;1.50;;;19.70;96.10;;;;;;5058190;28;20009;-86
2023/09/21 02:07:47;;;;;;;1.70;1.50;;;19.70;96.10;;;;;;5041422;28;20026;-86
2023/09/21 02:10:17;;;;;;;1.73;1.30;;;19.70;96.10;;;;;;5052925;28;20021;-87
2023/09/21 02:12:56;;;;;;;1.88;1.40;;;19.70;96.10;;;;;;5017540;28;20104;-86
2023/09/21 02:15:23;;;;;;;2.83;1.20;;;19.80;96.10;;;;;;5017267;28;20028;-85
2023/09/21 02:17:49;;;;;;;2.15;1.38;;;19.80;96.10;;;;;;5016716;28;20021;-86
2023/09/21 02:20:18;;;;;;;2.80;1.40;;;19.70;96.10;;;;;;4999956;28;20137;-86
2023/09/21 02:22:45;;;;;;;1.75;1.42;;;19.70;96.10;;;;;;5017053;28;20026;-85
2023/09/21 02:25:13;;;;;;;1.70;1.38;;;19.70;96.00;;;;;;5000467;28;20120;-86
2023/09/21 02:27:40;;;;;;;3.22;1.42;;;19.80;96.00;;;;;;5016569;28;20460;-86
2023/09/21 02:30:16;;;;;;;2.80;1.38;;;19.80;96.00;;;;;;5016612;28;20075;-85
2023/09/21 02:32:50;;;;;;;2.35;1.10;;;19.80;96.00;;;;;;5016800;28;20125;-86
2023/09/21 02:35:27;;;;;;;3.40;1.50;;;19.80;96.00;;;;;;5017245;28;20519;-86
2023/09/21 02:37:56;;;;;;;2.08;1.30;;;19.80;96.00;;;;;;5016541;28;20025;-86
2023/09/21 02:40:24;;;;;;;2.72;1.45;;;19.80;96.00;;;;;;5000223;28;20033;-85
2023/09/21 02:42:52;;;;;;;2.63;1.33;;;19.80;96.20;;;;;;5034225;28;20025;-86
2023/09/21 02:45:19;;;;;;;3.70;1.48;;;19.80;96.00;;;;;;5016077;28;20071;-86
2023/09/21 02:47:46;;;;;;;1.95;1.23;;;19.80;96.00;;;;;;5036624;28;20100;-86
2023/09/21 02:50:14;;;;;;;1.88;1.30;;;19.80;95.90;;;;;;5006589;28;20393;-86
2023/09/21 02:53:05;;;;;;;2.03;1.40;;;19.80;96.00;;;;;;5022475;28;20025;-86
2023/09/21 02:55:33;;;;;;;3.13;1.30;;;19.80;96.00;;;;;;5022781;28;20488;-86
2023/09/21 02:58:10;;;;;;;2.63;1.20;;;19.90;96.00;;;;;;5040550;28;20349;-86
2023/09/21 03:00:49;;;;;;;2.97;1.55;;;19.90;95.90;;;;;;5022733;28;20117;-87
2023/09/21 03:03:17;;;;;;;1.73;1.10;;;19.90;95.90;;;;;;5022876;28;20013;-86
2023/09/21 03:05:47;;;;;;;3.70;1.30;;;19.90;95.90;;;;;;5040311;28;20342;-86
2023/09/21 03:08:13;;;;;;;3.15;1.30;;;19.90;95.90;;;;;;5022794;28;20450;-86
2023/09/21 03:10:53;;;;;;;4.68;1.30;;;19.90;95.80;;;;;;5021959;28;20037;-86
2023/09/21 03:13:19;;;;;;;2.65;1.30;;;19.90;95.80;;;;;;5006427;28;20026;-86
2023/09/21 03:15:47;;;;;;;3.17;1.40;;;19.90;95.80;;;;;;5022538;28;20017;-85
2023/09/21 03:18:14;;;;;;;2.45;1.50;;;20.00;95.80;;;;;;5040326;28;20029;-85
2023/09/21 03:20:40;;;;;;;3.00;1.05;;;20.00;95.80;;;;;;5022203;28;20057;-86
2023/09/21 03:23:09;;;;;;;2.97;1.35;;;20.00;95.70;;;;;;5022663;28;20026;-87
2023/09/21 03:25:47;;;;;;;3.10;1.40;;;20.00;95.70;;;;;;5022120;28;20029;-86
2023/09/21 03:28:22;;;;;;;3.80;1.38;;;20.00;95.70;;;;;;5022818;28;20014;-86
2023/09/21 03:30:52;;;;;;;1.58;1.40;;;20.10;95.70;;;;;;5022316;28;20457;-86
2023/09/21 03:33:20;;;;;;;2.83;1.45;;;20.10;95.70;;;;;;5022474;28;20362;-86
2023/09/21 03:35:48;;;;;;;3.25;1.52;;;20.10;95.70;;;;;;5022728;28;20400;-86
2023/09/21 03:38:18;;;;;;;1.95;1.40;;;20.10;95.60;;;;;;5022674;28;20040;-86
2023/09/21 03:40:44;;;;;;;2.15;1.10;;;20.10;95.60;;;;;;5021827;28;20108;-86
2023/09/21 03:43:12;;;;;;;3.65;1.52;;;20.10;95.60;;;;;;5022200;28;20018;-87
2023/09/21 03:45:38;;;;;;;1.40;1.30;;;20.20;95.60;;;;;;5022163;28;20025;-85
2023/09/21 03:48:06;;;;;;;2.17;1.52;;;20.20;95.60;;;;;;5040221;28;20028;-86
2023/09/21 03:50:32;;;;;;;1.77;1.40;;;20.10;95.60;;;;;;5039977;28;20458;-86
2023/09/21 03:52:59;;;;;;;1.92;1.30;;;20.20;95.60;;;;;;5035692;28;20006;-86
2023/09/21 03:55:25;;;;;;;2.67;1.20;;;20.20;95.60;;;;;;5063968;28;20010;-86
2023/09/21 03:57:51;;;;;;;2.28;1.55;;;20.20;95.60;;;;;;5046542;28;20020;-85
2023/09/21 04:03:06;;;;;;;1.88;1.52;;;20.10;95.60;;;;;;5060584;28;20056;-86
2023/09/21 04:05:34;;;;;;;1.95;1.48;;;20.20;95.60;;;;;;5025783;28;20022;-86
2023/09/21 04:07:59;;;;;;;3.00;1.50;;;20.10;95.60;;;;;;5020628;28;20022;-86
2023/09/21 04:10:25;;;;;;;1.77;1.30;;;20.20;95.60;;;;;;5037074;28;20075;-86
2023/09/21 04:12:55;;;;;;;2.17;1.40;;;20.20;95.70;;;;;;5019164;28;20029;-86
2023/09/21 04:15:22;;;;;;;1.67;1.35;;;20.20;95.70;;;;;;5037016;28;20143;-86
2023/09/21 04:17:48;;;;;;;1.45;1.23;;;20.20;95.70;;;;;;5018314;28;20021;-86
2023/09/21 04:20:18;;;;;;;1.90;1.20;;;20.20;95.70;;;;;;5016893;28;20187;-85
2023/09/21 04:22:45;;;;;;;1.92;1.42;;;20.20;95.70;;;;;;5018661;28;20025;-86
2023/09/21 04:25:14;;;;;;;2.00;1.35;;;20.20;95.70;;;;;;5001823;28;20026;-85
2023/09/21 04:27:53;;;;;;;1.58;1.48;;;20.20;95.70;;;;;;5017955;28;20016;-86
2023/09/21 04:30:22;;;;;;;2.63;1.65;;;20.10;95.70;;;;;;5018243;28;20018;-86
2023/09/21 04:32:50;;;;;;;1.98;1.50;;;20.20;95.80;;;;;;5002407;28;20036;-86
2023/09/21 04:35:18;;;;;;;1.85;1.55;;;20.10;95.70;;;;;;5018534;28;20022;-86
2023/09/21 04:37:45;;;;;;;1.95;1.23;;;20.20;95.80;;;;;;5001982;28;20041;-86
2023/09/21 04:40:12;;;;;;;2.00;1.50;;;20.20;95.80;;;;;;5019126;28;20105;-86
2023/09/21 04:42:40;;;;;;;2.47;1.50;;;20.10;95.80;;;;;;5017939;28;20025;-86
2023/09/21 04:45:11;;;;;;;3.72;1.90;;;20.10;95.80;;;;;;5017524;28;20060;-86
2023/09/21 04:47:45;;;;;;;2.13;1.60;;;20.10;95.80;;;;;;5017162;28;20029;-86
2023/09/21 04:50:16;;;;;;;4.07;1.60;;;20.10;95.80;;;;;;5035449;28;20022;-86
2023/09/21 04:52:43;;;;;;;1.80;1.50;;;20.20;95.80;;;;;;5018097;28;20030;-85
2023/09/21 04:55:10;;;;;;;2.17;1.48;;;20.20;95.80;;;;;;5017320;28;20043;-85
2023/09/21 04:57:44;;;;;;;4.15;1.73;;;20.10;95.80;;;;;;5017953;28;20021;-85
2023/09/21 05:00:14;;;;;;;1.70;1.48;;;20.10;95.90;;;;;;5017559;28;20017;-85
2023/09/21 05:02:40;;;;;;;1.88;1.50;;;20.20;95.90;;;;;;5017486;28;20021;-85
2023/09/21 05:05:07;;;;;;;1.77;1.30;;;20.10;95.90;;;;;;5035434;28;20032;-86
2023/09/21 05:07:35;;;;;;;2.63;1.67;;;20.10;95.90;;;;;;5035052;28;20445;-86
2023/09/21 05:10:01;;;;;;;2.60;1.83;;;20.10;95.90;;;;;;5000708;28;20057;-86
2023/09/21 05:12:27;;;;;;;1.92;1.60;;;20.10;95.90;;;;;;5001417;28;20416;-86
2023/09/21 05:14:53;;;;;;;2.22;1.40;;;20.10;95.90;;;;;;5001141;28;20025;-85
2023/09/21 05:17:19;;;;;;;1.80;1.40;;;20.10;95.90;;;;;;5017598;28;20112;-86
2023/09/21 05:19:44;;;;;;;2.08;1.48;;;20.10;95.90;;;;;;5017199;28;20029;-85
2023/09/21 05:22:11;;;;;;;2.85;1.50;;;20.10;96.00;;;;;;5034866;28;20041;-86
2023/09/21 05:24:37;;;;;;;2.65;2.13;;;20.10;96.00;;;;;;5017250;28;20112;-86
2023/09/21 05:27:04;;;;;;;2.38;1.55;;;20.10;96.10;;;;;;5017122;28;20017;-88
2023/09/21 05:29:30;;;;;;;2.22;1.45;;;20.10;96.10;;;;;;5035054;28;20017;-86
2023/09/21 05:31:56;;;;;;;3.15;1.60;;;20.10;96.10;;;;;;5000845;28;20026;-86
2023/09/21 05:34:22;;;;;;;3.03;2.25;;;20.10;96.20;;;;;;5016821;28;20032;-86
2023/09/21 05:36:51;;;;;;;1.77;1.20;;;20.10;96.20;;;;;;5016535;28;20454;-85
2023/09/21 05:39:19;;;;;;;2.55;1.55;;;20.00;96.20;;;;;;5001672;28;20091;-86
2023/09/21 05:41:47;;;;;;;3.33;1.48;;;20.10;96.20;;;;;;5017260;28;20026;-85
2023/09/21 05:44:13;;;;;;;2.38;1.50;;;20.10;96.30;;;;;;5018091;28;20022;-87
2023/09/21 05:46:39;;;;;;;2.00;1.50;;;20.10;96.30;;;;;;5023879;28;20052;-85
2023/09/21 05:49:07;;;;;;;2.15;1.48;;;20.10;96.30;;;;;;5041277;28;20014;-85
2023/09/21 05:51:35;;;;;;;2.50;1.75;;;20.10;96.30;;;;;;5025109;28;20041;-86
2023/09/21 05:54:01;;;;;;;1.60;1.40;;;20.10;96.30;;;;;;5041390;28;20017;-85
2023/09/21 05:56:30;;;;;;;2.97;1.80;;;20.10;96.30;;;;;;5025262;28;20029;-85
2023/09/21 05:58:56;;;;;;;1.65;1.33;;;20.00;96.30;;;;;;5030812;28;20079;-85
2023/09/21 06:01:22;;;;;;;2.90;1.58;;;20.00;96.40;;;;;;5001262;28;20021;-86
2023/09/21 06:03:52;;;;;;;1.90;1.40;;;20.00;96.40;;;;;;5000819;28;20053;-85
2023/09/21 06:06:19;;;;;;;2.35;1.40;;;20.00;96.40;;;;;;5000576;28;20120;-85
2023/09/21 06:08:45;;;;;;;3.88;1.48;;;20.10;96.40;;;;;;5017444;28;20030;-85
2023/09/21 06:11:11;;;;;;;1.90;1.40;;;20.10;96.40;;;;;;5016457;28;20174;-85
2023/09/21 06:13:37;;;;;;;2.08;1.33;;;20.10;96.70;;;;;;5016548;28;20022;-86
2023/09/21 06:16:05;;;;;;;2.55;1.70;;;20.10;96.40;;;;;;5016333;28;20033;-85
2023/09/21 06:18:30;;;;;;;3.22;1.73;;;20.10;96.50;;;;;;5016136;28;20028;-85
2023/09/21 06:20:57;;;;;;;3.03;1.60;;;20.10;96.50;;;;;;5015955;28;20041;-85
2023/09/21 06:23:23;;;;;;;1.75;1.52;;;20.10;96.50;;;;;;5033417;28;20072;-85
2023/09/21 06:25:49;;;;;;;2.50;1.40;;;20.10;96.50;;;;;;5033843;28;20056;-85
2023/09/21 06:28:15;;;;;;;2.92;1.50;;;20.00;96.50;;;;;;5016364;28;20186;-86
2023/09/21 06:30:41;;;;;;;2.97;1.65;;;20.10;96.80;;;;;;5016349;28;20033;-85
2023/09/21 06:33:07;;;;;;;1.42;1.13;;;20.10;96.60;;;;;;5000017;28;20040;-85
2023/09/21 06:35:33;;;;;;;2.70;1.80;;;20.10;96.60;;;;;;5015908;28;20028;-86
2023/09/21 06:37:59;;;;;;;2.97;1.50;;;20.10;96.60;;;;;;5033469;28;20033;-85
2023/09/21 06:40:28;;;;;;;3.33;1.77;;;20.10;96.70;;;;;;4999562;28;20022;-85
2023/09/21 06:42:54;;;;;;;2.53;1.52;;;20.10;96.70;;;;;;5015853;28;20520;-84
2023/09/21 06:45:19;;;;;;;2.40;1.25;;;20.10;96.70;;;;;;5015864;28;20025;-84
2023/09/21 06:47:47;;;;;;;2.20;1.60;;;20.10;96.80;;;;;;5016023;28;20075;-84
2023/09/21 06:50:14;;;;;;;2.58;1.67;;;20.10;96.80;;;;;;4999725;28;20029;-85
2023/09/21 06:52:40;;;;;;;2.38;1.70;;;20.10;96.90;;;;;;5033584;28;20013;-85
2023/09/21 06:55:06;;;;;;;3.03;1.63;;;20.10;97.00;;;;;;5015688;28;20076;-85
2023/09/21 06:57:34;;;;;;;3.53;1.80;;;20.10;97.10;;;;;;4999060;28;20029;-85
2023/09/21 07:00:08;;;;;;;2.60;1.50;;;20.10;97.20;;;;;;5015480;28;20165;-85
2023/09/21 07:02:33;;;;;;;3.28;1.85;;;20.10;97.40;;;;;;5015897;28;20017;-85
2023/09/21 07:04:59;;;;;;;3.75;1.90;;;20.10;97.50;;;;;;5015439;28;20462;-85
2023/09/21 07:07:25;;;;;;;3.35;1.80;;;20.10;97.60;;;;;;5015297;28;20116;-85
2023/09/21 07:09:53;;;;;;;2.95;1.65;;;20.10;97.70;;;;;;5015741;28;20022;-85
2023/09/21 07:12:19;;;;;;;2.22;1.67;;;20.10;97.90;;;;;;4999851;28;20112;-84
2023/09/21 07:14:45;;;;;;;3.25;2.08;;;20.10;98.10;;;;;;5033540;28;20060;-85
2023/09/21 07:17:11;;;;;;;3.13;1.80;;;20.00;98.10;;;;;;4983522;28;20030;-85
2023/09/21 07:19:37;;;;;;;2.80;1.60;;;20.10;98.30;;;;;;5015918;28;20029;-84
2023/09/21 07:22:04;;;;;;;5.60;1.85;;;20.10;98.30;;;;;;5032610;28;20051;-85
2023/09/21 07:24:30;;;;;;;2.33;1.63;;;20.00;98.40;;;;;;5015228;28;20034;-85
2023/09/21 07:26:56;;;;;;;2.22;1.77;;;20.00;98.50;;;;;;4998890;28;20053;-84
2023/09/21 07:29:24;;;;;;;2.25;1.65;;;20.00;98.50;;;;;;5015650;28;20025;-85
2023/09/21 07:31:53;;;;;;;2.00;1.63;;;20.00;98.60;;;;;;5015601;28;20049;-84
2023/09/21 07:34:21;;;;;;;2.42;1.60;;;20.00;98.60;;;;;;5017823;28;20060;-85
2023/09/21 07:36:47;;;;;;;4.90;1.90;;;20.00;98.70;;;;;;5020190;28;20125;-84
2023/09/21 07:39:14;;;;;;;2.15;1.67;;;20.00;98.70;;;;;;5005286;28;20090;-85
2023/09/21 07:41:40;;;;;;;3.45;1.90;;;20.00;98.80;;;;;;5035760;28;20076;-85
2023/09/21 07:44:08;;;;;;;2.80;1.67;;;20.00;98.80;;;;;;5043467;28;20081;-85
2023/09/21 07:46:36;;;;;;;3.30;1.70;;;20.00;98.80;;;;;;5027564;28;20021;-85
2023/09/21 07:49:02;;;;;;;3.10;1.80;;;20.00;98.90;;;;;;5043557;28;20014;-85
2023/09/21 07:51:28;;;;;;;2.15;1.73;;;20.00;98.90;;;;;;5043681;28;20151;-85
2023/09/21 07:53:57;;;;;;;3.65;1.88;;;20.00;99.00;;;;;;5047327;28;20025;-85
2023/09/21 07:56:23;;;;;;;3.13;1.80;;;20.00;99.10;;;;;;5003518;28;20373;-85
2023/09/21 07:58:49;;;;;;;2.63;2.10;;;20.00;99.20;;;;;;5003544;28;20018;-85
2023/09/21 08:01:14;;;;;;;2.05;1.70;;;19.90;99.20;;;;;;5037534;28;20487;-84
2023/09/21 08:03:40;;;;;;;2.90;2.00;;;20.00;99.30;;;;;;5019754;28;20039;-85
2023/09/21 08:06:07;;;;;;;3.28;2.08;;;19.90;99.40;;;;;;5019258;28;20022;-84
2023/09/21 08:08:32;;;;;;;2.17;1.70;;;19.90;99.50;;;;;;5019359;28;20024;-84
2023/09/21 08:10:58;;;;;;;3.38;2.10;;;19.90;99.50;;;;;;5019031;28;20025;-85
2023/09/21 08:13:29;;;;;;;2.47;1.90;;;20.00;99.70;;;;;;5002825;28;20397;-85
2023/09/21 08:15:55;;;;;;;5.18;2.38;;;19.90;99.70;;;;;;5036508;28;20017;-85
2023/09/21 08:18:21;;;;;;;2.95;1.80;;;19.90;99.80;;;;;;5018715;28;20030;-85
2023/09/21 08:20:47;;;;;;;2.55;2.00;;;19.90;99.90;;;;;;5018678;28;20071;-85
2023/09/21 08:23:17;;;;;;;2.17;1.80;;;20.00;99.90;;;;;;5017859;28;20362;-84
2023/09/21 08:25:43;;;;;;;3.17;2.10;;;19.90;99.90;;;;;;5036262;28;20465;-85
2023/09/21 08:28:09;;;;;;;4.32;1.95;;;20.00;99.90;;;;;;5018196;28;20268;-85
2023/09/21 08:30:34;;;;;;;2.42;1.98;;;19.90;99.90;;;;;;5002008;28;20049;-84
2023/09/21 08:33:00;;;;;;;2.53;2.15;;;19.90;99.90;;;;;;5035815;28;20473;-85
2023/09/21 08:35:26;;;;;;;4.68;2.03;;;19.90;99.90;;;;;;5018153;28;20026;-85
2023/09/21 08:37:52;;;;;;;3.05;1.90;;;19.90;99.90;;;;;;5018527;28;20029;-85
2023/09/21 08:40:22;;;;;;;2.40;1.77;;;19.90;99.90;;;;;;5001868;28;20463;-85
2023/09/21 08:42:52;;;;;;;2.97;2.13;;;19.90;99.90;;;;;;5018631;28;20061;-83
2023/09/21 08:45:19;;;;;;;4.35;2.00;;;19.90;99.90;;;;;;5017619;28;20268;-84
2023/09/21 08:47:46;;;;;;;3.85;2.10;;;19.90;99.90;;;;;;5018269;28;20010;-85
2023/09/21 08:50:13;;;;;;;3.42;1.92;;;19.90;99.90;;;;;;5018209;28;20467;-85
2023/09/21 08:52:44;;;;;;;2.45;1.80;;;19.80;99.90;;;;;;5017839;28;20463;-85
2023/09/21 08:55:14;;;;;;;5.53;1.80;;;19.90;99.90;;;;;;5017782;28;20025;-84
2023/09/21 08:57:43;;;;;;;3.63;2.03;;;19.90;99.90;;;;;;5035910;28;20017;-85
2023/09/21 09:00:09;;;;;;;3.33;2.33;;;19.90;99.90;;;;;;5017744;28;20013;-84
2023/09/21 09:02:36;;;;;;;2.60;1.85;;;19.90;99.90;;;;;;5017988;28;20473;-85
2023/09/21 09:05:09;;;;;;;3.30;2.28;;;19.90;99.90;;;;;;5035839;28;20114;-84
2023/09/21 09:07:39;;;;;;;3.88;2.00;;;19.90;99.90;;;;;;5018083;28;20071;-85
2023/09/21 09:10:09;;;;;;;;;;;19.90;99.90;;;;;;5002172;28;20515;-85
2023/09/21 09:12:35;;;;;;;2.73;1.83;;;19.90;99.90;;;;;;5002082;28;19909;-84
2023/09/21 09:15:03;;;;;;;3.15;2.10;;;19.80;99.90;;;;;;5017859;28;20104;-84
2023/09/21 09:17:33;;;;;;;2.85;1.98;;;19.90;99.90;;;;;;5001342;28;20025;-85
2023/09/21 09:20:02;;;;;;;3.53;2.17;;;19.90;99.90;;;;;;5035603;28;20404;-85
2023/09/21 09:22:31;;;;;;;2.70;2.00;;;19.90;99.90;;;;;;5017006;28;20124;-84
2023/09/21 09:25:05;;;;;;;2.60;2.30;;;19.90;99.90;;;;;;5035739;28;20017;-85
2023/09/21 09:27:32;;;;;;;3.53;2.20;;;19.90;99.90;;;;;;5017855;28;20445;-85
2023/09/21 09:29:58;;;;;;;3.47;2.33;;;19.90;99.90;;;;;;5001311;28;20473;-84
2023/09/21 09:32:24;;;;;;;3.15;2.38;;;19.80;99.90;;;;;;5023188;28;20125;-84
2023/09/21 09:34:49;;;;;;;3.50;2.38;;;19.80;99.90;;;;;;5027110;28;20033;-84
2023/09/21 09:37:16;;;;;;;3.10;2.42;;;19.80;99.90;;;;;;5025190;28;20077;-84
2023/09/21 09:39:45;;;;;;;2.80;2.03;;;19.90;99.90;;;;;;5059066;28;20016;-84
2023/09/21 09:42:13;;;;;;;2.35;1.60;;;19.80;99.90;;;;;;5041290;28;20006;-85
2023/09/21 09:44:44;;;;;;;2.85;1.75;;;19.80;99.90;;;;;;5042373;28;20022;-84
2023/09/21 09:47:13;;;;;;;1.75;1.40;;;19.70;99.90;;;;;;5029494;28;20454;-85
2023/09/21 09:49:44;;;;;;;1.35;1.13;;;19.70;99.90;;;;;;5035062;28;20021;-84
2023/09/21 09:52:13;;;;;;;1.38;1.17;;;19.60;99.90;;;;;;5035045;28;20028;-84
2023/09/21 09:54:40;;;;;;;1.33;1.10;;;19.60;99.90;;;;;;5017315;28;20022;-84
2023/09/21 09:57:11;;;;;;;1.58;1.10;;;19.50;99.90;;;;;;4999822;28;20427;-85
2023/09/21 09:59:38;;;;;;;2.28;1.10;;;19.50;99.90;;;;;;5017106;28;20079;-84
2023/09/21 10:02:07;;;;;;;1.52;0.90;;;19.50;99.90;;;;;;5016893;28;20105;-84
2023/09/21 10:04:35;;;;;;;1.92;1.10;;;19.50;99.90;;;;;;5016887;28;20022;-84
2023/09/21 10:07:04;;;;;;;1.02;0.98;;;19.50;99.90;;;;;;5016625;28;20112;-84
2023/09/21 10:09:31;;;;;;;1.55;1.00;;;19.40;99.90;;;;;;5016738;28;20101;-84
2023/09/21 10:11:58;;;;;;;1.40;1.27;;;19.40;99.90;;;;;;5016735;28;20022;-84
2023/09/21 10:14:24;;;;;;;1.90;1.30;;;19.40;99.90;;;;;;5000394;28;20365;-84
2023/09/21 10:16:54;;;;;;;1.42;1.33;;;19.40;99.90;;;;;;5000693;28;20021;-84
2023/09/21 10:19:25;;;;;;;2.33;1.25;;;19.40;99.90;;;;;;5016918;28;20107;-84
2023/09/21 10:21:59;;;;;;;1.20;1.10;;;19.40;99.90;;;;;;5016612;28;20022;-84
2023/09/21 10:24:29;;;;;;;2.17;1.00;;;19.30;99.90;;;;;;5016392;28;20473;-84
2023/09/21 10:26:58;;;;;;;1.33;1.13;;;19.30;99.90;;;;;;5016818;28;20017;-84
2023/09/21 10:29:42;;;;;;;1.63;1.20;;;19.30;99.90;;;;;;5016534;28;20028;-84
2023/09/21 10:32:07;;;;;;;1.85;1.27;;;19.40;99.90;;;;;;5016729;28;20087;-84
2023/09/21 10:34:33;;;;;;;2.53;1.20;;;19.40;99.90;;;;;;5016256;28;20029;-84
2023/09/21 10:37:11;;;;;;;2.80;1.13;;;19.40;99.90;;;;;;5016646;28;20120;-84
2023/09/21 10:39:39;;;;;;;1.58;1.30;;;19.40;99.90;;;;;;5016188;28;20096;-84
2023/09/21 10:42:05;;;;;;;2.25;1.30;;;19.40;99.90;;;;;;5016158;28;20528;-84
2023/09/21 10:44:52;;;;;;;2.38;1.30;;;19.40;99.90;;;;;;5033399;28;20056;-84
2023/09/21 10:47:49;;;;;;;2.88;1.50;;;19.40;99.90;;;;;;5016304;28;20346;-84
2023/09/21 10:50:16;;;;;;;1.45;1.30;;;19.50;99.90;;;;;;5012775;28;20021;-84
2023/09/21 10:52:52;;;;;;;1.48;1.38;;;19.50;99.90;;;;;;5016193;28;20029;-84
2023/09/21 10:55:20;;;;;;;1.45;1.30;;;19.50;99.90;;;;;;5034182;28;20040;-83
2023/09/21 10:57:47;;;;;;;2.25;1.30;;;19.50;99.90;;;;;;4999899;28;20347;-84
2023/09/21 11:00:20;;;;;;;2.72;1.60;;;19.50;99.90;;;;;;5033823;28;20047;-84
2023/09/21 11:02:49;;;;;;;3.22;1.75;;;19.60;99.90;;;;;;5000265;28;20462;-84
2023/09/21 11:05:16;;;;;;;1.50;1.40;;;19.50;99.90;;;;;;5016346;28;20125;-84
2023/09/21 11:07:47;;;;;;;2.28;1.85;;;19.60;99.90;;;;;;5000035;28;20024;-84
2023/09/21 11:10:14;;;;;;;2.95;1.70;;;19.60;99.90;;;;;;5004215;28;20013;-84
2023/09/21 11:12:44;;;;;;;1.85;1.60;;;19.60;99.90;;;;;;5019644;28;20087;-84
2023/09/21 11:15:16;;;;;;;2.63;1.80;;;19.60;99.90;;;;;;5037306;28;20400;-84
2023/09/21 11:17:44;;;;;;;2.42;1.58;;;19.70;99.90;;;;;;5019669;28;20466;-84
2023/09/21 11:20:18;;;;;;;2.28;1.67;;;19.70;99.90;;;;;;5037502;28;20025;-84
2023/09/21 11:22:48;;;;;;;1.83;1.70;;;19.70;99.90;;;;;;5037448;28;20069;-84
2023/09/21 11:25:18;;;;;;;2.72;1.80;;;19.80;99.90;;;;;;5002952;28;20091;-84
2023/09/21 11:27:45;;;;;;;4.03;2.10;;;19.80;99.90;;;;;;5003453;28;20060;-84
2023/09/21 11:30:15;;;;;;;2.25;1.73;;;19.90;99.90;;;;;;5037078;28;20484;-84
2023/09/21 11:32:44;;;;;;;2.75;1.98;;;19.90;99.90;;;;;;5003768;28;20040;-84
2023/09/21 11:35:10;;;;;;;2.47;1.80;;;19.90;99.90;;;;;;5019758;28;20014;-84
2023/09/21 11:37:36;;;;;;;2.10;1.88;;;20.00;99.90;;;;;;5003512;28;20031;-84
2023/09/21 11:40:07;;;;;;;2.33;1.88;;;20.00;99.90;;;;;;5037705;28;20021;-84
2023/09/21 11:42:33;;;;;;;2.63;2.10;;;20.00;99.90;;;;;;5021556;28;20025;-84
2023/09/21 11:45:00;;;;;;;3.20;2.28;;;20.10;99.90;;;;;;5005232;28;20332;-85
2023/09/21 11:47:25;;;;;;;2.55;1.88;;;20.10;99.90;;;;;;5021644;28;20082;-84
2023/09/21 11:49:53;;;;;;;4.03;1.33;;;20.10;99.90;;;;;;5043368;28;20025;-85
2023/09/21 11:52:23;;;;;;;1.50;1.27;;;19.90;99.90;;;;;;5043523;28;20028;-85
2023/09/21 11:54:49;;;;;;;1.67;1.27;;;19.80;99.90;;;;;;5060488;28;20040;-85
2023/09/21 11:57:14;;;;;;;2.45;1.17;;;19.70;99.90;;;;;;5026956;28;20029;-84
2023/09/21 11:59:41;;;;;;;1.65;1.30;;;19.70;99.90;;;;;;5040799;28;20116;-84
2023/09/21 12:02:16;;;;;;;2.78;1.77;;;19.70;99.90;;;;;;5019859;28;20099;-84
2023/09/21 12:04:43;;;;;;;2.45;1.70;;;19.70;99.90;;;;;;5019187;28;20360;-84
2023/09/21 12:07:14;;;;;;;2.33;1.40;;;19.70;99.90;;;;;;5003391;28;20350;-84
2023/09/21 12:09:42;;;;;;;1.58;1.40;;;19.70;99.90;;;;;;5036161;28;20111;-84
2023/09/21 12:12:13;;;;;;;2.80;1.50;;;19.70;99.90;;;;;;5018986;28;20021;-85
2023/09/21 12:14:40;;;;;;;1.63;1.17;;;19.70;99.90;;;;;;5018580;28;20456;-84
2023/09/21 12:17:11;;;;;;;1.98;1.05;;;19.60;99.90;;;;;;5002661;28;20025;-84
2023/09/21 12:19:37;;;;;;;;;;;19.60;99.90;;;;;;4987534;28;20454;-85
2023/09/21 12:22:06;;;;;;;3.42;1.50;;;19.50;99.90;;;;;;5035698;28;19901;-84
2023/09/21 12:24:35;;;;;;;1.83;1.40;;;19.40;99.90;;;;;;5018348;28;20050;-84
2023/09/21 12:27:05;;;;;;;2.10;1.30;;;19.30;99.90;;;;;;5001890;28;20025;-84
2023/09/21 12:29:31;;;;;;;1.52;1.25;;;19.20;99.90;;;;;;5018389;28;20449;-84
2023/09/21 12:31:58;;;;;;;2.03;1.05;;;19.20;99.90;;;;;;5035608;28;20029;-84
2023/09/21 12:34:24;;;;;;;1.45;1.23;;;19.20;99.90;;;;;;5001668;28;20029;-85
2023/09/21 12:36:51;;;;;;;1.23;1.02;;;19.10;99.90;;;;;;5002103;28;20028;-84
2023/09/21 12:39:18;;;;;;;1.17;0.85;;;19.00;99.90;;;;;;5018419;28;20408;-84
2023/09/21 12:41:44;;;;;;;1.33;0.98;;;18.90;99.90;;;;;;5002399;28;20068;-84
2023/09/21 12:44:11;;;;;;;1.35;1.20;;;18.80;99.90;;;;;;5002837;28;20025;-84
2023/09/21 12:46:37;;;;;;;1.15;0.80;;;18.70;99.90;;;;;;5035863;28;20092;-83
2023/09/21 12:49:04;;;;;;;1.88;0.93;;;18.70;99.90;;;;;;5018250;28;20044;-84
2023/09/21 12:51:30;;;;;;;3.72;1.10;;;18.70;99.90;;;;;;5001810;28;20032;-84
2023/09/21 12:53:57;;;;;;;2.33;1.00;;;18.60;99.90;;;;;;5001310;28;20029;-85
2023/09/21 12:56:23;;;;;;;1.80;1.20;;;18.60;99.90;;;;;;5001744;28;20029;-85